Ashburn, Virginia
Current Conditions -  °F | °C
As of 12:55 PM on Monday 24 Nov 2014 (Local Time) from KJYO Reporting Station
Scattered Clouds Scattered Clouds  
Wind Chill: 70°   Ceiling: Unl
Heat Index: 70°   Visibility: 10mi
Dew Point: 57°   Wind: 18mph
Humidity: 64%   Direction: 210°SSW
Pressure: 29.61"   Gusts: 29mph
Location:  39.04°N, 77.48°W
Report Text: KJYO 241755Z AUTO 21016G25KT 10SM SCT030 21/14 A2961 RMK AO2
Loading
Personal Weather Stations






























Interactive Weather Map New forecast layout! Learn more

10-Day Weather Forecast

Advertisements
Track Severe Weather on mobile